Aérodrome :
LOGIN :

S'inscrire | Disclaimer

   EN    FR    IT 

 










Légende :    VFR   VFR Marginal   IFR   IFR Intensif   IFR Très Intensif
Visi : 
Plafond : 
>= 8 km
>= 3000ft
5 à 8 km
1000 à 3000 ft
1500m à 5 km
500 à 1000 ft
800 à 1500m
200 à 500 ft
< 800m
< 200 ft
Symboles :   Orages  Brouillard  Fortes neiges  Fortes précipitations  Vent > 20 kt
SIGMETs :   Divers  Orages  Givrage  Turbulence  Onde Orograph.  Cendres Volcan.







- Altitude de l'aérodrome : 218 ft
- Code IATA : LBG
- Voir les cartes d'approche


LFPB - Paris / Le Bourget

DERNIER METAR :
  • 270600Z AUTO 07003KT CAVOK 08/05 Q1012 NOSIG

METARs EXPIRÉS :
  • 270530Z AUTO 06003KT CAVOK 06/04 Q1012 NOSIG
  • 270500Z AUTO 06003KT CAVOK 06/03 Q1012 NOSIG
  • 270430Z AUTO 07005KT CAVOK 06/03 Q1012 NOSIG
  • 270400Z AUTO 06005KT CAVOK 06/03 Q1012 NOSIG
  • 270330Z AUTO 07004KT CAVOK 06/03 Q1013 NOSIG

TAF TAF LFPB
Valide du 27 à 06h jusqu'au 28 à 06h UTC


270500Z 2706/2806 12005KT CAVOK
BECMG 2711/2713 20010KT
TEMPO 2714/2803 22015G25KT
ATIS : +33 1 48 62 43 92
Pas de NOTAMs connus pour ce terrain.



MET'MAP, la Météo Aéronautique d'un coup d'oeil ! - Copyright ORBIFLY Décembre 2007 - Disclaimer

ORBIFLY MET'MAP TEAM :

Programmation & Développement : Alexandra Zaïnal
Conception & Développement : Baudouin d'Aumeries
Co-Programmation & Développement : Marc-Olivier Méhu
Soutien technique & logistique : Manuel Goepfert

Contact : metmap@orbifly.com




SOURCES & CREDITS :

   NOAA